CO70 weather

CLOSED Uhrich Airport
Greeley, Colorado, United States

Public forecast

Using degrees Fahrenheit for public forecast. Weather courtesy of forecast.io.

METAR (pilot weather report)

Closest report is Greeley–Weld County Airport, 1.5 nm (2.8 km) SSE. Retrieved 2019/08/25 03:56 UTC (9 minutes ago):

KGXY 250356Z AUTO 07005KT 10SM 19/12 A3001 RMK AO2 SLP128 T01940117 $

TAF (pilot weather forecast)

Forecast is more than 12 hours old.

Closest forecast is Denver International Airport, 36.0 nm (66.6 km) S. Retrieved 2019/08/24 00:39 UTC (1 day ago):

TAF KDEN 242336Z 2500/2606 02007KT P6SM FEW100 SCT150 SCT200 FM250200 11008KT P6SM FEW150 SCT220 FM250500 16009KT P6SM FEW220 FM250800 21010KT P6SM FEW220 FM251600 28012KT P6SM FEW150 FM252000 32014G20KT P6SM SCT110 SCT200 FM260200 21010KT P6SM FEW110 SCT180